sensor_id;sensor_type;location;lat;lon;timestamp;pressure;altitude;pressure_sealevel;temperature;humidity
21129;BME280;10722;51.910;8.352;2022-07-01T00:01:51;100688.38;;;15.57;100.00
21129;BME280;10722;51.910;8.352;2022-07-01T00:04:36;100707.50;;;15.51;100.00
21129;BME280;10722;51.910;8.352;2022-07-01T00:07:21;100701.50;;;15.32;100.00
21129;BME280;10722;51.910;8.352;2022-07-01T00:10:07;100707.63;;;15.16;100.00
21129;BME280;10722;51.910;8.352;2022-07-01T00:12:53;100705.84;;;15.33;100.00
21129;BME280;10722;51.910;8.352;2022-07-01T00:15:38;100703.19;;;15.50;100.00
21129;BME280;10722;51.910;8.352;2022-07-01T00:18:23;100683.16;;;15.57;100.00
21129;BME280;10722;51.910;8.352;2022-07-01T00:21:09;100678.88;;;15.46;100.00
21129;BME280;10722;51.910;8.352;2022-07-01T00:23:59;100677.06;;;15.59;100.00
21129;BME280;10722;51.910;8.352;2022-07-01T00:26:44;100684.94;;;15.42;100.00
21129;BME280;10722;51.910;8.352;2022-07-01T00:29:29;100686.69;;;15.45;100.00
21129;BME280;10722;51.910;8.352;2022-07-01T00:32:15;100682.31;;;15.50;100.00
21129;BME280;10722;51.910;8.352;2022-07-01T00:35:00;100690.22;;;15.27;100.00
21129;BME280;10722;51.910;8.352;2022-07-01T00:37:46;100691.94;;;15.30;100.00
21129;BME280;10722;51.910;8.352;2022-07-01T00:40:31;100691.06;;;15.38;100.00
21129;BME280;10722;51.910;8.352;2022-07-01T00:43:17;100704.16;;;15.15;100.00
21129;BME280;10722;51.910;8.352;2022-07-01T00:46:12;100720.66;;;15.20;100.00
21129;BME280;10722;51.910;8.352;2022-07-01T00:48:58;100737.16;;;15.04;100.00
21129;BME280;10722;51.910;8.352;2022-07-01T00:51:43;100738.88;;;15.19;100.00
21129;BME280;10722;51.910;8.352;2022-07-01T00:54:30;100751.03;;;14.86;100.00
21129;BME280;10722;51.910;8.352;2022-07-01T00:57:16;100744.97;;;14.95;100.00
21129;BME280;10722;51.910;8.352;2022-07-01T01:00:05;100729.31;;;15.09;100.00
21129;BME280;10722;51.910;8.352;2022-07-01T01:02:51;100718.91;;;15.16;100.00
21129;BME280;10722;51.910;8.352;2022-07-01T01:05:36;100739.75;;;15.16;100.00
21129;BME280;10722;51.910;8.352;2022-07-01T01:08:21;100738.88;;;14.99;100.00
21129;BME280;10722;51.910;8.352;2022-07-01T01:11:07;100742.38;;;14.90;100.00
21129;BME280;10722;51.910;8.352;2022-07-01T01:13:53;100738.91;;;15.04;100.00
21129;BME280;10722;51.910;8.352;2022-07-01T01:16:38;100738.88;;;14.99;100.00
21129;BME280;10722;51.910;8.352;2022-07-01T01:19:23;100735.41;;;15.17;100.00
21129;BME280;10722;51.910;8.352;2022-07-01T01:22:09;100741.50;;;15.05;100.00
21129;BME280;10722;51.910;8.352;2022-07-01T01:24:57;100742.38;;;15.04;100.00
21129;BME280;10722;51.910;8.352;2022-07-01T01:27:42;100753.66;;;14.85;100.00
21129;BME280;10722;51.910;8.352;2022-07-01T01:30:28;100751.06;;;14.92;100.00
21129;BME280;10722;51.910;8.352;2022-07-01T01:33:13;100745.84;;;14.71;100.00
21129;BME280;10722;51.910;8.352;2022-07-01T01:35:58;100740.63;;;14.80;100.00
21129;BME280;10722;51.910;8.352;2022-07-01T01:38:44;100744.97;;;14.92;100.00
21129;BME280;10722;51.910;8.352;2022-07-01T01:41:29;100748.47;;;14.92;100.00
21129;BME280;10722;51.910;8.352;2022-07-01T01:44:14;100756.25;;;15.03;100.00
21129;BME280;10722;51.910;8.352;2022-07-01T01:47:00;100750.19;;;15.07;100.00
21129;BME280;10722;51.910;8.352;2022-07-01T01:49:45;100744.09;;;15.00;100.00
21129;BME280;10722;51.910;8.352;2022-07-01T01:52:30;100747.56;;;14.95;100.00
21129;BME280;10722;51.910;8.352;2022-07-01T01:55:15;100740.63;;;15.05;100.00
21129;BME280;10722;51.910;8.352;2022-07-01T01:58:01;100740.59;;;15.14;100.00
21129;BME280;10722;51.910;8.352;2022-07-01T02:00:46;100742.34;;;14.92;100.00
21129;BME280;10722;51.910;8.352;2022-07-01T02:03:32;100751.91;;;14.88;100.00
21129;BME280;10722;51.910;8.352;2022-07-01T02:06:18;100750.16;;;14.78;100.00
21129;BME280;10722;51.910;8.352;2022-07-01T02:09:04;100753.63;;;14.68;100.00
21129;BME280;10722;51.910;8.352;2022-07-01T02:11:49;100748.44;;;14.71;100.00
21129;BME280;10722;51.910;8.352;2022-07-01T02:14:34;100764.94;;;14.70;100.00
21129;BME280;10722;51.910;8.352;2022-07-01T02:17:19;100767.53;;;14.68;100.00
21129;BME280;10722;51.910;8.352;2022-07-01T02:20:05;100777.94;;;14.65;100.00
21129;BME280;10722;51.910;8.352;2022-07-01T02:22:50;100781.41;;;14.66;100.00
21129;BME280;10722;51.910;8.352;2022-07-01T02:25:36;100799.59;;;14.61;100.00
21129;BME280;10722;51.910;8.352;2022-07-01T02:28:21;100798.75;;;14.57;100.00
21129;BME280;10722;51.910;8.352;2022-07-01T02:31:07;100805.66;;;14.55;100.00
21129;BME280;10722;51.910;8.352;2022-07-01T02:33:53;100803.97;;;14.62;100.00
21129;BME280;10722;51.910;8.352;2022-07-01T02:36:38;100818.72;;;14.63;100.00
21129;BME280;10722;51.910;8.352;2022-07-01T02:39:23;100819.59;;;14.71;100.00
21129;BME280;10722;51.910;8.352;2022-07-01T02:42:09;100810.91;;;14.69;100.00
21129;BME280;10722;51.910;8.352;2022-07-01T02:44:54;100816.13;;;14.65;100.00
21129;BME280;10722;51.910;8.352;2022-07-01T02:47:40;100828.28;;;14.63;100.00
21129;BME280;10722;51.910;8.352;2022-07-01T02:50:26;100834.34;;;14.65;100.00
21129;BME280;10722;51.910;8.352;2022-07-01T02:53:15;100847.34;;;14.57;100.00
21129;BME280;10722;51.910;8.352;2022-07-01T02:56:00;100860.28;;;14.49;100.00
21129;BME280;10722;51.910;8.352;2022-07-01T02:58:45;100863.75;;;14.42;100.00
21129;BME280;10722;51.910;8.352;2022-07-01T03:01:31;100863.75;;;14.44;100.00
21129;BME280;10722;51.910;8.352;2022-07-01T03:04:17;100859.47;;;14.55;100.00
21129;BME280;10722;51.910;8.352;2022-07-01T03:07:02;100865.53;;;14.52;100.00
21129;BME280;10722;51.910;8.352;2022-07-01T03:09:47;100871.56;;;14.50;100.00
21129;BME280;10722;51.910;8.352;2022-07-01T03:12:33;100870.72;;;14.49;100.00
21129;BME280;10722;51.910;8.352;2022-07-01T03:15:18;100884.59;;;14.50;100.00
21129;BME280;10722;51.910;8.352;2022-07-01T03:18:04;100882.84;;;14.43;100.00
21129;BME280;10722;51.910;8.352;2022-07-01T03:20:49;100880.19;;;14.35;100.00
21129;BME280;10722;51.910;8.352;2022-07-01T03:23:35;100878.50;;;14.43;100.00
21129;BME280;10722;51.910;8.352;2022-07-01T03:26:20;100874.16;;;14.36;100.00
21129;BME280;10722;51.910;8.352;2022-07-01T03:29:05;100878.47;;;14.39;100.00
21129;BME280;10722;51.910;8.352;2022-07-01T03:31:51;100879.34;;;14.36;100.00
21129;BME280;10722;51.910;8.352;2022-07-01T03:34:37;100872.38;;;14.29;100.00
21129;BME280;10722;51.910;8.352;2022-07-01T03:37:24;100883.63;;;14.26;100.00
21129;BME280;10722;51.910;8.352;2022-07-01T03:40:09;100884.50;;;14.28;100.00
21129;BME280;10722;51.910;8.352;2022-07-01T03:42:55;100885.38;;;14.26;100.00
21129;BME280;10722;51.910;8.352;2022-07-01T03:45:41;100887.09;;;14.25;100.00
21129;BME280;10722;51.910;8.352;2022-07-01T03:48:26;100880.19;;;14.30;100.00
21129;BME280;10722;51.910;8.352;2022-07-01T03:51:11;100887.19;;;14.42;100.00
21129;BME280;10722;51.910;8.352;2022-07-01T03:53:57;100890.63;;;14.40;100.00
21129;BME280;10722;51.910;8.352;2022-07-01T03:56:42;100888.84;;;14.29;100.00
21129;BME280;10722;51.910;8.352;2022-07-01T03:59:31;100894.06;;;14.29;100.00
21129;BME280;10722;51.910;8.352;2022-07-01T04:02:16;100894.09;;;14.34;100.00
21129;BME280;10722;51.910;8.352;2022-07-01T04:05:01;100910.50;;;14.24;100.00
21129;BME280;10722;51.910;8.352;2022-07-01T04:07:47;100912.19;;;14.16;100.00
21129;BME280;10722;51.910;8.352;2022-07-01T04:10:33;100912.28;;;14.28;100.00
21129;BME280;10722;51.910;8.352;2022-07-01T04:13:19;100920.03;;;14.20;100.00
21129;BME280;10722;51.910;8.352;2022-07-01T04:16:14;100914.81;;;14.14;100.00
21129;BME280;10722;51.910;8.352;2022-07-01T04:18:59;100904.38;;;14.16;100.00
21129;BME280;10722;51.910;8.352;2022-07-01T04:21:45;100907.00;;;14.14;100.00
21129;BME280;10722;51.910;8.352;2022-07-01T04:24:30;100901.75;;;14.12;100.00
21129;BME280;10722;51.910;8.352;2022-07-01T04:27:16;100899.19;;;14.17;100.00
21129;BME280;10722;51.910;8.352;2022-07-01T04:30:01;100898.31;;;14.15;100.00
21129;BME280;10722;51.910;8.352;2022-07-01T04:32:46;100906.94;;;14.09;100.00
21129;BME280;10722;51.910;8.352;2022-07-01T04:35:32;100899.16;;;14.11;100.00
21129;BME280;10722;51.910;8.352;2022-07-01T04:38:17;100889.75;;;14.38;100.00
21129;BME280;10722;51.910;8.352;2022-07-01T04:41:03;100878.50;;;14.40;100.00
21129;BME280;10722;51.910;8.352;2022-07-01T04:43:48;100862.91;;;14.45;100.00
21129;BME280;10722;51.910;8.352;2022-07-01T04:46:34;100856.88;;;14.61;100.00
21129;BME280;10722;51.910;8.352;2022-07-01T04:49:19;100862.13;;;14.75;100.00
21129;BME280;10722;51.910;8.352;2022-07-01T04:52:05;100861.28;;;14.74;100.00
21129;BME280;10722;51.910;8.352;2022-07-01T04:54:50;100863.91;;;14.76;100.00
21129;BME280;10722;51.910;8.352;2022-07-01T04:57:35;100879.50;;;14.77;100.00
21129;BME280;10722;51.910;8.352;2022-07-01T05:00:21;100888.19;;;14.78;100.00
21129;BME280;10722;51.910;8.352;2022-07-01T05:03:06;100898.59;;;14.66;100.00
21129;BME280;10722;51.910;8.352;2022-07-01T05:05:51;100909.84;;;14.63;100.00
21129;BME280;10722;51.910;8.352;2022-07-01T05:08:37;100922.84;;;14.57;100.00
21129;BME280;10722;51.910;8.352;2022-07-01T05:11:22;100934.06;;;14.51;100.00
21129;BME280;10722;51.910;8.352;2022-07-01T05:14:07;100935.75;;;14.40;100.00
21129;BME280;10722;51.910;8.352;2022-07-01T05:16:52;100934.94;;;14.50;100.00
21129;BME280;10722;51.910;8.352;2022-07-01T05:19:38;100930.72;;;14.68;100.00
21129;BME280;10722;51.910;8.352;2022-07-01T05:22:23;100922.06;;;14.79;100.00
21129;BME280;10722;51.910;8.352;2022-07-01T05:25:08;100924.69;;;14.92;100.00
21129;BME280;10722;51.910;8.352;2022-07-01T05:27:54;100916.00;;;14.79;100.00
21129;BME280;10722;51.910;8.352;2022-07-01T05:30:39;100924.72;;;14.95;100.00
21129;BME280;10722;51.910;8.352;2022-07-01T05:33:25;100929.09;;;15.05;100.00
21129;BME280;10722;51.910;8.352;2022-07-01T05:36:10;100924.75;;;15.10;100.00
21129;BME280;10722;51.910;8.352;2022-07-01T05:38:55;100927.31;;;14.95;100.00
21129;BME280;10722;51.910;8.352;2022-07-01T05:41:41;100934.25;;;14.87;100.00
21129;BME280;10722;51.910;8.352;2022-07-01T05:44:26;100933.38;;;14.88;100.00
21129;BME280;10722;51.910;8.352;2022-07-01T05:47:11;100920.28;;;14.72;100.00
21129;BME280;10722;51.910;8.352;2022-07-01T05:49:56;100920.34;;;14.75;100.00
21129;BME280;10722;51.910;8.352;2022-07-01T05:52:42;100929.03;;;14.88;100.00
21129;BME280;10722;51.910;8.352;2022-07-01T05:55:27;100928.16;;;14.89;100.00
21129;BME280;10722;51.910;8.352;2022-07-01T05:58:13;100929.97;;;15.04;100.00
21129;BME280;10722;51.910;8.352;2022-07-01T06:00:59;100920.41;;;15.17;100.00
21129;BME280;10722;51.910;8.352;2022-07-01T06:03:53;100922.16;;;15.19;100.00
21129;BME280;10722;51.910;8.352;2022-07-01T06:06:38;100924.75;;;15.10;100.00
21129;BME280;10722;51.910;8.352;2022-07-01T06:09:24;100924.75;;;15.10;100.00
21129;BME280;10722;51.910;8.352;2022-07-01T06:12:09;100922.16;;;15.04;100.00
21129;BME280;10722;51.910;8.352;2022-07-01T06:14:55;100930.84;;;15.15;100.00
21129;BME280;10722;51.910;8.352;2022-07-01T06:17:41;100927.38;;;15.15;100.00
21129;BME280;10722;51.910;8.352;2022-07-01T06:20:26;100924.78;;;15.19;100.00
21129;BME280;10722;51.910;8.352;2022-07-01T06:23:11;100920.38;;;15.06;100.00
21129;BME280;10722;51.910;8.352;2022-07-01T06:25:57;100933.47;;;15.15;100.00
21129;BME280;10722;51.910;8.352;2022-07-01T06:28:42;100941.28;;;15.23;100.00
21129;BME280;10722;51.910;8.352;2022-07-01T06:31:27;100958.69;;;15.27;100.00
21129;BME280;10722;51.910;8.352;2022-07-01T06:34:12;100960.38;;;15.10;100.00
21129;BME280;10722;51.910;8.352;2022-07-01T06:36:58;100964.66;;;14.91;100.00
21129;BME280;10722;51.910;8.352;2022-07-01T06:39:43;100974.19;;;14.81;100.00
21129;BME280;10722;51.910;8.352;2022-07-01T06:42:28;100984.56;;;14.78;100.00
21129;BME280;10722;51.910;8.352;2022-07-01T06:45:13;100979.34;;;14.70;100.00
21129;BME280;10722;51.910;8.352;2022-07-01T06:47:59;100990.59;;;14.72;100.00
21129;BME280;10722;51.910;8.352;2022-07-01T06:50:44;100994.13;;;14.76;100.00
21129;BME280;10722;51.910;8.352;2022-07-01T06:53:30;100991.44;;;14.59;100.00
21129;BME280;10722;51.910;8.352;2022-07-01T06:56:16;100992.22;;;14.50;100.00
21129;BME280;10722;51.910;8.352;2022-07-01T06:59:02;100982.69;;;14.52;100.00
21129;BME280;10722;51.910;8.352;2022-07-01T07:01:48;100992.28;;;14.56;100.00
21129;BME280;10722;51.910;8.352;2022-07-01T07:04:34;100991.44;;;14.62;100.00
21129;BME280;10722;51.910;8.352;2022-07-01T07:07:39;100991.47;;;14.68;100.00
21129;BME280;10722;51.910;8.352;2022-07-01T07:10:25;100994.09;;;14.74;100.00
21129;BME280;10722;51.910;8.352;2022-07-01T07:13:10;100994.06;;;14.65;100.00
21129;BME280;10722;51.910;8.352;2022-07-01T07:15:56;100998.38;;;14.59;100.00
21129;BME280;10722;51.910;8.352;2022-07-01T07:18:41;101001.91;;;14.71;100.00
21129;BME280;10722;51.910;8.352;2022-07-01T07:21:26;101000.22;;;14.86;100.00
21129;BME280;10722;51.910;8.352;2022-07-01T07:24:12;100993.31;;;14.97;100.00
21129;BME280;10722;51.910;8.352;2022-07-01T07:26:57;100990.75;;;14.98;100.00
21129;BME280;10722;51.910;8.352;2022-07-01T07:29:43;100993.38;;;15.08;100.00
21129;BME280;10722;51.910;8.352;2022-07-01T07:32:29;100985.56;;;15.12;100.00
21129;BME280;10722;51.910;8.352;2022-07-01T07:35:14;100984.72;;;15.25;100.00
21129;BME280;10722;51.910;8.352;2022-07-01T07:38:01;100970.84;;;15.33;100.00
21129;BME280;10722;51.910;8.352;2022-07-01T07:40:47;100994.34;;;15.43;100.00
21129;BME280;10722;51.910;8.352;2022-07-01T07:43:33;100994.38;;;15.54;100.00
21129;BME280;10722;51.910;8.352;2022-07-01T07:46:18;100998.69;;;15.64;100.00
21129;BME280;10722;51.910;8.352;2022-07-01T07:49:03;101013.53;;;15.76;100.00
21129;BME280;10722;51.910;8.352;2022-07-01T07:51:49;101012.66;;;15.82;100.00
21129;BME280;10722;51.910;8.352;2022-07-01T07:54:34;101009.19;;;15.83;100.00
21129;BME280;10722;51.910;8.352;2022-07-01T07:57:20;101017.88;;;16.06;100.00
21129;BME280;10722;51.910;8.352;2022-07-01T08:00:07;101003.94;;;16.29;100.00
21129;BME280;10722;51.910;8.352;2022-07-01T08:02:53;101005.66;;;16.30;100.00
21129;BME280;10722;51.910;8.352;2022-07-01T08:05:39;101004.78;;;16.35;100.00
21129;BME280;10722;51.910;8.352;2022-07-01T08:08:24;100999.56;;;16.46;98.82
21129;BME280;10722;51.910;8.352;2022-07-01T08:11:09;100991.78;;;16.00;96.56
21129;BME280;10722;51.910;8.352;2022-07-01T08:13:55;101009.19;;;15.90;97.99
21129;BME280;10722;51.910;8.352;2022-07-01T08:16:40;101035.22;;;15.60;98.75
21129;BME280;10722;51.910;8.352;2022-07-01T08:19:26;101046.50;;;15.59;99.68
21129;BME280;10722;51.910;8.352;2022-07-01T08:22:11;101036.09;;;15.57;99.00
21129;BME280;10722;51.910;8.352;2022-07-01T08:24:57;101028.28;;;15.60;99.36
21129;BME280;10722;51.910;8.352;2022-07-01T08:27:42;101026.56;;;15.82;100.00
21129;BME280;10722;51.910;8.352;2022-07-01T08:30:34;101030.94;;;16.03;100.00
21129;BME280;10722;51.910;8.352;2022-07-01T08:33:20;101023.94;;;16.30;98.40
21129;BME280;10722;51.910;8.352;2022-07-01T08:36:07;101024.81;;;16.38;97.54
21129;BME280;10722;51.910;8.352;2022-07-01T08:38:52;101040.47;;;16.38;97.11
21129;BME280;10722;51.910;8.352;2022-07-01T08:41:40;101046.59;;;16.26;96.02
21129;BME280;10722;51.910;8.352;2022-07-01T08:44:25;101052.66;;;16.44;96.14
21129;BME280;10722;51.910;8.352;2022-07-01T08:47:12;101037.88;;;16.33;94.95
21129;BME280;10722;51.910;8.352;2022-07-01T08:50:03;101023.03;;;16.57;93.00
21129;BME280;10722;51.910;8.352;2022-07-01T08:52:49;101037.81;;;16.63;92.22
21129;BME280;10722;51.910;8.352;2022-07-01T08:55:34;101043.03;;;16.70;91.41
21129;BME280;10722;51.910;8.352;2022-07-01T08:58:21;101052.56;;;16.97;91.02
21129;BME280;10722;51.910;8.352;2022-07-01T09:01:18;101055.22;;;16.88;90.93
21129;BME280;10722;51.910;8.352;2022-07-01T09:04:18;101066.50;;;16.95;90.64
21129;BME280;10722;51.910;8.352;2022-07-01T09:07:08;101047.38;;;16.76;88.87
21129;BME280;10722;51.910;8.352;2022-07-01T09:09:54;101064.81;;;16.63;89.43
21129;BME280;10722;51.910;8.352;2022-07-01T09:12:41;101065.66;;;16.88;89.21
21129;BME280;10722;51.910;8.352;2022-07-01T09:15:28;101068.22;;;17.10;88.93
21129;BME280;10722;51.910;8.352;2022-07-01T09:18:17;101047.13;;;17.43;85.91
21129;BME280;10722;51.910;8.352;2022-07-01T09:21:07;100997.03;;;18.00;81.74
21129;BME280;10722;51.910;8.352;2022-07-01T09:23:53;101043.03;;;18.29;83.16
21129;BME280;10722;51.910;8.352;2022-07-01T09:26:38;100951.16;;;18.50;75.49
21129;BME280;10722;51.910;8.352;2022-07-01T09:29:29;100961.38;;;19.37;73.93
21129;BME280;10722;51.910;8.352;2022-07-01T09:32:18;100934.41;;;19.84;70.51
21129;BME280;10722;51.910;8.352;2022-07-01T09:35:04;100929.03;;;20.38;68.17
21129;BME280;10722;51.910;8.352;2022-07-01T09:37:55;100924.03;;;21.10;65.84
21129;BME280;10722;51.910;8.352;2022-07-01T09:40:53;100929.63;;;21.71;64.33
21129;BME280;10722;51.910;8.352;2022-07-01T09:43:39;100922.91;;;21.93;62.02
21129;BME280;10722;51.910;8.352;2022-07-01T09:46:25;100890.88;;;20.63;60.92
21129;BME280;10722;51.910;8.352;2022-07-01T09:49:10;100970.19;;;19.33;65.85
21129;BME280;10722;51.910;8.352;2022-07-01T09:51:55;100975.00;;;19.01;68.63
21129;BME280;10722;51.910;8.352;2022-07-01T09:54:40;100940.63;;;19.21;66.33
21129;BME280;10722;51.910;8.352;2022-07-01T09:57:26;100925.50;;;19.39;66.61
21129;BME280;10722;51.910;8.352;2022-07-01T10:00:12;100926.75;;;19.13;66.72
21129;BME280;10722;51.910;8.352;2022-07-01T10:03:00;100940.09;;;18.98;67.80
21129;BME280;10722;51.910;8.352;2022-07-01T10:06:18;100979.78;;;18.66;69.86
21129;BME280;10722;51.910;8.352;2022-07-01T10:15:09;100982.28;;;18.78;70.46
21129;BME280;10722;51.910;8.352;2022-07-01T10:17:55;100989.19;;;18.87;70.53
21129;BME280;10722;51.910;8.352;2022-07-01T10:20:49;101007.16;;;19.14;71.70
21129;BME280;10722;51.910;8.352;2022-07-01T10:26:29;100955.97;;;19.49;66.86
21129;BME280;10722;51.910;8.352;2022-07-01T10:29:36;100936.31;;;19.17;66.44
21129;BME280;10722;51.910;8.352;2022-07-01T10:35:27;100993.28;;;19.06;68.51
21129;BME280;10722;51.910;8.352;2022-07-01T10:38:12;101010.44;;;18.59;69.79
21129;BME280;10722;51.910;8.352;2022-07-01T10:40:58;101034.72;;;18.72;71.67
21129;BME280;10722;51.910;8.352;2022-07-01T10:43:48;100994.03;;;18.38;70.03
21129;BME280;10722;51.910;8.352;2022-07-01T10:46:40;101040.22;;;18.49;73.51
21129;BME280;10722;51.910;8.352;2022-07-01T10:52:21;101017.44;;;18.55;71.62
21129;BME280;10722;51.910;8.352;2022-07-01T10:55:08;101009.75;;;18.38;71.08
21129;BME280;10722;51.910;8.352;2022-07-01T10:57:54;101035.16;;;18.32;72.49
21129;BME280;10722;51.910;8.352;2022-07-01T11:00:44;101063.09;;;18.33;73.31
21129;BME280;10722;51.910;8.352;2022-07-01T11:03:34;101054.97;;;18.57;72.70
21129;BME280;10722;51.910;8.352;2022-07-01T11:06:21;101021.81;;;18.55;71.17
21129;BME280;10722;51.910;8.352;2022-07-01T11:09:06;101023.72;;;18.42;71.39
21129;BME280;10722;51.910;8.352;2022-07-01T11:11:52;101026.09;;;18.65;70.97
21129;BME280;10722;51.910;8.352;2022-07-01T11:14:40;101025.69;;;19.00;70.55
21129;BME280;10722;51.910;8.352;2022-07-01T11:17:27;101000.50;;;19.52;67.88
21129;BME280;10722;51.910;8.352;2022-07-01T11:20:13;100971.72;;;20.02;65.88
21129;BME280;10722;51.910;8.352;2022-07-01T11:23:05;100991.13;;;20.44;64.73
21129;BME280;10722;51.910;8.352;2022-07-01T11:25:50;100924.63;;;20.82;61.10
21129;BME280;10722;51.910;8.352;2022-07-01T11:28:40;100953.06;;;21.05;61.70
21129;BME280;10722;51.910;8.352;2022-07-01T11:31:30;100950.69;;;20.03;62.07
21129;BME280;10722;51.910;8.352;2022-07-01T11:34:17;100958.66;;;20.45;62.30
21129;BME280;10722;51.910;8.352;2022-07-01T11:37:10;100954.00;;;20.14;61.76
21129;BME280;10722;51.910;8.352;2022-07-01T11:40:10;100964.19;;;20.30;62.52
21129;BME280;10722;51.910;8.352;2022-07-01T11:42:56;100942.63;;;20.60;61.87
21129;BME280;10722;51.910;8.352;2022-07-01T11:45:41;100899.94;;;20.48;59.22
21129;BME280;10722;51.910;8.352;2022-07-01T11:51:22;100971.16;;;20.32;62.19
21129;BME280;10722;51.910;8.352;2022-07-01T11:54:19;100981.25;;;20.07;62.85
21129;BME280;10722;51.910;8.352;2022-07-01T11:57:12;100963.66;;;20.12;62.00
21129;BME280;10722;51.910;8.352;2022-07-01T12:00:10;100939.13;;;20.13;60.78
21129;BME280;10722;51.910;8.352;2022-07-01T12:02:56;100973.06;;;19.75;62.55
21129;BME280;10722;51.910;8.352;2022-07-01T12:05:41;100994.72;;;19.89;63.08
21129;BME280;10722;51.910;8.352;2022-07-01T12:08:26;100988.69;;;20.32;62.26
21129;BME280;10722;51.910;8.352;2022-07-01T12:11:12;100982.31;;;20.45;61.29
21129;BME280;10722;51.910;8.352;2022-07-01T12:13:58;100979.53;;;20.54;61.19
21129;BME280;10722;51.910;8.352;2022-07-01T12:16:43;100961.81;;;21.06;59.33
21129;BME280;10722;51.910;8.352;2022-07-01T12:19:50;100940.00;;;21.41;57.26
21129;BME280;10722;51.910;8.352;2022-07-01T12:22:34;100927.50;;;21.11;56.74
21129;BME280;10722;51.910;8.352;2022-07-01T12:25:19;100961.22;;;20.93;57.90
21129;BME280;10722;51.910;8.352;2022-07-01T12:28:05;100901.00;;;20.39;55.93
21129;BME280;10722;51.910;8.352;2022-07-01T12:31:05;100957.84;;;19.95;58.65
21129;BME280;10722;51.910;8.352;2022-07-01T12:33:51;101014.03;;;20.36;61.41
21129;BME280;10722;51.910;8.352;2022-07-01T12:36:36;100962.50;;;20.75;58.22
21129;BME280;10722;51.910;8.352;2022-07-01T12:39:22;100966.91;;;20.73;58.76
21129;BME280;10722;51.910;8.352;2022-07-01T12:42:07;100944.88;;;20.79;57.13
21129;BME280;10722;51.910;8.352;2022-07-01T12:44:54;100948.16;;;20.89;56.85
21129;BME280;10722;51.910;8.352;2022-07-01T12:47:42;100971.22;;;21.16;57.50
21129;BME280;10722;51.910;8.352;2022-07-01T12:50:30;100907.59;;;21.74;54.21
21129;BME280;10722;51.910;8.352;2022-07-01T12:53:19;100903.72;;;21.88;52.59
21129;BME280;10722;51.910;8.352;2022-07-01T12:56:05;100956.72;;;20.98;55.86
21129;BME280;10722;51.910;8.352;2022-07-01T12:58:51;100967.81;;;20.72;56.51
21129;BME280;10722;51.910;8.352;2022-07-01T13:01:36;100946.00;;;20.21;56.75
21129;BME280;10722;51.910;8.352;2022-07-01T13:04:26;100940.59;;;20.28;56.00
21129;BME280;10722;51.910;8.352;2022-07-01T13:07:12;100984.22;;;20.38;57.57
21129;BME280;10722;51.910;8.352;2022-07-01T13:09:57;100992.41;;;21.10;57.37
21129;BME280;10722;51.910;8.352;2022-07-01T13:12:43;100945.53;;;21.66;53.90
21129;BME280;10722;51.910;8.352;2022-07-01T13:15:29;100946.25;;;21.34;53.84
21129;BME280;10722;51.910;8.352;2022-07-01T13:18:14;100953.69;;;22.24;53.32
21129;BME280;10722;51.910;8.352;2022-07-01T13:20:59;100907.03;;;22.59;50.65
21129;BME280;10722;51.910;8.352;2022-07-01T13:23:45;100917.47;;;21.98;51.26
21129;BME280;10722;51.910;8.352;2022-07-01T13:26:30;100938.19;;;21.43;53.07
21129;BME280;10722;51.910;8.352;2022-07-01T13:29:15;100981.59;;;21.24;54.79
21129;BME280;10722;51.910;8.352;2022-07-01T13:32:01;101009.69;;;21.23;57.48
21129;BME280;10722;51.910;8.352;2022-07-01T13:34:46;100996.47;;;21.25;55.87
21129;BME280;10722;51.910;8.352;2022-07-01T13:37:32;101004.41;;;21.62;55.71
21129;BME280;10722;51.910;8.352;2022-07-01T13:40:18;100985.94;;;22.00;54.65
21129;BME280;10722;51.910;8.352;2022-07-01T13:43:03;100969.38;;;22.30;52.91
21129;BME280;10722;51.910;8.352;2022-07-01T13:45:49;100940.94;;;22.42;51.46
21129;BME280;10722;51.910;8.352;2022-07-01T13:48:34;100950.41;;;22.16;51.65
21129;BME280;10722;51.910;8.352;2022-07-01T13:51:19;100973.63;;;21.66;52.67
21129;BME280;10722;51.910;8.352;2022-07-01T13:54:05;100962.88;;;21.74;52.73
21129;BME280;10722;51.910;8.352;2022-07-01T13:56:50;100996.72;;;21.55;53.35
21129;BME280;10722;51.910;8.352;2022-07-01T13:59:36;100989.72;;;20.73;53.97
21129;BME280;10722;51.910;8.352;2022-07-01T14:02:26;100999.72;;;20.51;54.31
21129;BME280;10722;51.910;8.352;2022-07-01T14:05:11;101008.78;;;20.34;54.97
21129;BME280;10722;51.910;8.352;2022-07-01T14:07:57;101012.84;;;20.54;54.38
21129;BME280;10722;51.910;8.352;2022-07-01T14:10:42;101013.31;;;20.26;54.67
21129;BME280;10722;51.910;8.352;2022-07-01T14:13:27;101007.22;;;20.24;55.30
21129;BME280;10722;51.910;8.352;2022-07-01T14:16:13;100986.72;;;20.43;54.08
21129;BME280;10722;51.910;8.352;2022-07-01T14:18:58;101005.59;;;20.67;53.74
21129;BME280;10722;51.910;8.352;2022-07-01T14:21:44;101013.41;;;21.12;53.38
21129;BME280;10722;51.910;8.352;2022-07-01T14:24:29;100938.06;;;21.48;49.76
21129;BME280;10722;51.910;8.352;2022-07-01T14:27:15;100946.38;;;21.67;48.45
21129;BME280;10722;51.910;8.352;2022-07-01T14:30:00;100929.59;;;21.35;48.00
21129;BME280;10722;51.910;8.352;2022-07-01T14:32:45;100955.81;;;21.01;49.00
21129;BME280;10722;51.910;8.352;2022-07-01T14:35:31;100960.78;;;21.13;49.23
21129;BME280;10722;51.910;8.352;2022-07-01T14:38:16;100947.22;;;20.91;49.09
21129;BME280;10722;51.910;8.352;2022-07-01T14:41:01;100962.72;;;21.05;49.00
21129;BME280;10722;51.910;8.352;2022-07-01T14:43:46;100958.59;;;21.32;48.11